createdAt,value
2023-08-09T00:01:53.846Z,40.31
2023-08-09T00:04:20.366Z,40.93
2023-08-09T00:06:46.871Z,41.48
2023-08-09T00:09:15.848Z,40.66
2023-08-09T00:14:23.895Z,40.47
2023-08-09T00:16:50.409Z,40.62
2023-08-09T00:19:16.852Z,40.95
2023-08-09T00:21:43.371Z,40.52
2023-08-09T00:24:09.912Z,40.66
2023-08-09T00:26:36.439Z,39.97
2023-08-09T00:29:02.963Z,39.56
2023-08-09T00:31:29.526Z,39.07
2023-08-09T00:33:56.102Z,39.04
2023-08-09T00:36:22.713Z,39.21
2023-08-09T00:38:49.270Z,39.49
2023-08-09T00:41:15.843Z,39.41
2023-08-09T00:43:42.427Z,39.89
2023-08-09T00:46:10.901Z,39.91
2023-08-09T00:48:37.510Z,39.74
2023-08-09T00:51:04.096Z,40.37
2023-08-09T00:53:30.674Z,40.67
2023-08-09T00:55:57.210Z,40.68
2023-08-09T00:58:23.683Z,40.85
2023-08-09T01:00:50.202Z,41.11
2023-08-09T01:03:19.007Z,40.19
2023-08-09T01:05:45.557Z,40.35
2023-08-09T01:08:12.336Z,39.73
2023-08-09T01:10:38.873Z,39.79
2023-08-09T01:13:09.548Z,40.00
2023-08-09T01:15:36.060Z,39.60
2023-08-09T01:18:06.198Z,39.97
2023-08-09T01:20:32.633Z,40.25
2023-08-09T01:23:08.683Z,39.95
2023-08-09T01:25:35.622Z,39.93
2023-08-09T01:28:02.177Z,39.78
2023-08-09T01:30:32.970Z,40.21
2023-08-09T01:32:59.452Z,40.64
2023-08-09T01:35:25.927Z,40.96
2023-08-09T01:37:52.389Z,40.82
2023-08-09T01:40:18.905Z,41.12
2023-08-09T01:42:48.007Z,41.14
2023-08-09T01:47:54.828Z,40.78
2023-08-09T01:50:21.495Z,41.18
2023-08-09T01:52:48.152Z,41.45
2023-08-09T01:55:14.808Z,40.94
2023-08-09T01:57:41.260Z,41.17
2023-08-09T02:00:07.755Z,41.12
2023-08-09T02:02:34.479Z,41.56
2023-08-09T02:05:00.984Z,41.34
2023-08-09T02:10:12.223Z,41.27
2023-08-09T02:12:40.748Z,41.46
2023-08-09T02:15:07.271Z,41.67
2023-08-09T02:17:33.856Z,40.97
2023-08-09T02:20:00.465Z,41.04
2023-08-09T02:22:28.362Z,41.58
2023-08-09T02:24:54.893Z,41.65
2023-08-09T02:27:21.559Z,41.55
2023-08-09T02:29:51.615Z,41.98
2023-08-09T02:32:20.600Z,43.20
2023-08-09T02:34:47.139Z,43.02
2023-08-09T02:37:13.910Z,43.34
2023-08-09T02:39:44.564Z,43.27
2023-08-09T02:42:11.186Z,43.29
2023-08-09T02:44:37.667Z,43.43
2023-08-09T02:47:04.511Z,43.86
2023-08-09T02:49:31.210Z,44.26
2023-08-09T02:51:57.731Z,42.86
2023-08-09T02:54:24.185Z,44.60
2023-08-09T02:56:50.708Z,44.90
2023-08-09T02:59:17.221Z,44.83
2023-08-09T03:01:43.837Z,44.54
2023-08-09T03:04:10.374Z,44.54
2023-08-09T03:06:36.899Z,44.68
2023-08-09T03:09:03.407Z,44.22
2023-08-09T03:11:29.962Z,44.51
2023-08-09T03:13:56.406Z,44.44
2023-08-09T03:16:22.909Z,44.57
2023-08-09T03:18:58.624Z,44.81
2023-08-09T03:21:25.151Z,44.36
2023-08-09T03:23:51.656Z,44.14
2023-08-09T03:26:18.226Z,43.27
2023-08-09T03:28:44.695Z,43.52
2023-08-09T03:31:11.198Z,43.49
2023-08-09T03:33:37.714Z,43.23
2023-08-09T03:36:04.199Z,43.74
2023-08-09T03:38:30.718Z,43.72
2023-08-09T03:40:57.168Z,43.39
2023-08-09T03:46:04.047Z,44.30
2023-08-09T03:48:30.622Z,44.29
2023-08-09T03:50:57.138Z,44.46
2023-08-09T03:53:23.635Z,43.86
2023-08-09T03:56:02.135Z,43.95
2023-08-09T03:58:28.646Z,43.83
2023-08-09T04:00:55.157Z,43.52
2023-08-09T04:03:22.512Z,44.33
2023-08-09T04:05:49.079Z,44.87
2023-08-09T04:08:15.508Z,45.49
2023-08-09T04:10:42.073Z,45.59
2023-08-09T04:13:08.600Z,46.37
2023-08-09T04:15:35.222Z,46.38
2023-08-09T04:18:01.825Z,46.26
2023-08-09T04:20:29.894Z,45.49
2023-08-09T04:22:58.108Z,45.35
2023-08-09T04:25:24.650Z,45.38
2023-08-09T04:27:51.174Z,45.65
2023-08-09T04:30:28.692Z,45.60
2023-08-09T04:32:55.286Z,45.87
2023-08-09T04:35:21.871Z,45.92
2023-08-09T04:37:48.393Z,46.49
2023-08-09T04:40:14.927Z,46.50
2023-08-09T04:42:41.399Z,46.61
2023-08-09T04:45:10.591Z,46.89
2023-08-09T04:47:37.184Z,46.39
2023-08-09T04:50:03.692Z,46.52
2023-08-09T04:52:30.212Z,46.60
2023-08-09T04:54:56.657Z,47.14
2023-08-09T04:57:23.162Z,47.05
2023-08-09T05:02:40.395Z,47.52
2023-08-09T05:05:06.929Z,47.92
2023-08-09T05:07:33.371Z,47.79
2023-08-09T05:09:59.904Z,48.23
2023-08-09T05:12:26.428Z,48.44
2023-08-09T05:14:52.975Z,48.47
2023-08-09T05:17:19.625Z,48.12
2023-08-09T05:19:46.105Z,47.60
2023-08-09T05:22:12.652Z,47.70
2023-08-09T05:27:19.488Z,47.65
2023-08-09T05:29:46.024Z,47.60
2023-08-09T05:32:12.551Z,46.95
2023-08-09T05:34:39.092Z,47.05
2023-08-09T05:37:05.628Z,47.11
2023-08-09T05:39:32.132Z,47.27
2023-08-09T05:42:11.299Z,47.40
2023-08-09T05:44:37.774Z,47.06
2023-08-09T05:47:16.553Z,47.36
2023-08-09T05:49:43.130Z,47.18
2023-08-09T05:52:09.609Z,47.65
2023-08-09T05:54:36.052Z,47.69
2023-08-09T05:57:02.750Z,47.43
2023-08-09T05:59:29.451Z,47.33
2023-08-09T06:01:55.922Z,47.36
2023-08-09T06:04:22.410Z,47.69
2023-08-09T06:06:48.827Z,47.70
2023-08-09T06:09:15.256Z,48.03
2023-08-09T06:11:44.578Z,48.32
2023-08-09T06:14:11.053Z,48.48
2023-08-09T06:16:37.552Z,49.03
2023-08-09T06:19:04.114Z,49.26
2023-08-09T06:21:30.564Z,49.40
2023-08-09T06:23:57.017Z,49.35
2023-08-09T06:26:23.505Z,49.29
2023-08-09T06:28:49.958Z,49.39
2023-08-09T06:31:16.498Z,49.54
2023-08-09T06:33:43.032Z,49.60
2023-08-09T06:36:09.555Z,49.93
2023-08-09T06:38:36.041Z,50.00
2023-08-09T06:41:02.584Z,50.29
2023-08-09T06:43:29.127Z,50.18
2023-08-09T06:48:35.970Z,50.52
2023-08-09T06:51:02.482Z,50.62
2023-08-09T06:56:09.365Z,51.02
2023-08-09T06:58:35.962Z,50.90
2023-08-09T07:01:02.741Z,51.00
2023-08-09T07:03:29.303Z,50.59
2023-08-09T07:06:04.853Z,51.29
2023-08-09T07:11:22.523Z,51.16
2023-08-09T07:13:49.093Z,50.07
2023-08-09T07:16:16.698Z,49.87
2023-08-09T07:18:43.223Z,51.02
2023-08-09T07:21:09.741Z,51.90
2023-08-09T07:23:55.014Z,51.60
2023-08-09T07:26:22.612Z,51.72
2023-08-09T07:28:49.086Z,51.26
2023-08-09T07:31:15.672Z,51.03
2023-08-09T07:33:42.186Z,50.50
2023-08-09T07:36:08.720Z,51.38
2023-08-09T07:38:55.201Z,50.78
2023-08-09T07:41:21.788Z,50.51
2023-08-09T07:43:52.493Z,50.79
2023-08-09T07:46:19.074Z,50.27
2023-08-09T07:48:45.704Z,50.13
2023-08-09T07:51:12.270Z,50.17
2023-08-09T07:53:47.450Z,49.79
2023-08-09T07:56:13.897Z,49.53
2023-08-09T07:58:40.437Z,49.62
2023-08-09T08:01:06.990Z,49.60
2023-08-09T08:03:33.534Z,49.85
2023-08-09T08:06:00.151Z,50.13
2023-08-09T08:08:26.762Z,50.01
2023-08-09T08:10:53.523Z,49.97
2023-08-09T08:13:21.481Z,49.67
2023-08-09T08:15:54.118Z,49.65
2023-08-09T08:18:20.607Z,49.40
2023-08-09T08:20:47.200Z,49.82
2023-08-09T08:23:13.769Z,49.85
2023-08-09T08:25:40.526Z,50.13
2023-08-09T08:28:11.866Z,49.66
2023-08-09T08:30:38.392Z,49.01
2023-08-09T08:33:04.989Z,49.32
2023-08-09T08:35:31.581Z,49.18
2023-08-09T08:37:58.112Z,48.97
2023-08-09T08:40:24.778Z,49.15
2023-08-09T08:42:51.287Z,48.57
2023-08-09T08:45:21.516Z,48.57
2023-08-09T08:47:48.119Z,47.27
2023-08-09T08:50:15.943Z,48.67
2023-08-09T08:52:43.875Z,49.55
2023-08-09T08:55:10.403Z,49.58
2023-08-09T08:57:37.144Z,49.95
2023-08-09T09:00:16.949Z,49.39
2023-08-09T09:02:51.543Z,47.10
2023-08-09T09:05:18.090Z,47.27
2023-08-09T09:07:44.594Z,47.67
2023-08-09T09:10:12.235Z,47.55
2023-08-09T09:12:39.231Z,46.44
2023-08-09T09:15:06.148Z,46.24
2023-08-09T09:17:32.670Z,45.33
2023-08-09T09:25:19.860Z,44.61
2023-08-09T09:27:46.405Z,44.10
2023-08-09T09:30:12.911Z,44.49
2023-08-09T09:32:39.457Z,45.03
2023-08-09T09:35:05.977Z,44.81
2023-08-09T09:37:34.576Z,45.20
2023-08-09T09:40:01.192Z,43.95
2023-08-09T09:42:27.813Z,43.77
2023-08-09T09:44:54.364Z,44.17
2023-08-09T09:47:20.934Z,43.55
2023-08-09T09:49:47.447Z,42.91
2023-08-09T09:52:16.114Z,42.50
2023-08-09T09:54:42.657Z,42.77
2023-08-09T09:57:09.098Z,42.41
2023-08-09T09:59:35.602Z,42.69
2023-08-09T10:02:02.335Z,42.23
2023-08-09T10:04:29.017Z,42.52
2023-08-09T10:06:56.887Z,42.74
2023-08-09T10:09:23.301Z,43.08
2023-08-09T10:11:49.774Z,43.91
2023-08-09T10:17:14.730Z,43.03
2023-08-09T10:19:42.309Z,43.28
2023-08-09T10:22:08.878Z,43.55
2023-08-09T10:24:35.411Z,43.19
2023-08-09T10:29:52.037Z,42.34
2023-08-09T10:32:19.280Z,43.37
2023-08-09T10:34:46.088Z,44.24
2023-08-09T10:37:12.634Z,44.45
2023-08-09T10:39:39.121Z,45.29
2023-08-09T10:42:06.001Z,44.15
2023-08-09T10:44:32.871Z,45.08
2023-08-09T10:46:59.496Z,44.34
2023-08-09T10:49:25.988Z,44.22
2023-08-09T10:51:52.649Z,42.51
2023-08-09T10:54:19.211Z,44.19
2023-08-09T10:56:45.728Z,44.48
2023-08-09T10:59:12.236Z,43.53
2023-08-09T11:01:38.713Z,45.16
2023-08-09T11:04:06.815Z,45.35
2023-08-09T11:06:34.824Z,44.70
2023-08-09T11:09:01.337Z,44.51
2023-08-09T11:11:27.841Z,42.55
2023-08-09T11:13:56.693Z,43.81
2023-08-09T11:19:05.039Z,44.31
2023-08-09T11:21:32.673Z,39.92
2023-08-09T11:24:00.587Z,38.96
2023-08-09T11:26:27.406Z,38.13
2023-08-09T11:31:34.614Z,37.44
2023-08-09T11:34:01.137Z,39.85
2023-08-09T11:36:27.630Z,39.14
2023-08-09T11:38:54.205Z,36.81
2023-08-09T11:41:23.754Z,39.98
2023-08-09T11:43:52.203Z,41.02
2023-08-09T11:46:18.761Z,38.69
2023-08-09T11:48:45.373Z,40.77
2023-08-09T11:51:11.845Z,43.48
2023-08-09T11:53:38.437Z,42.68
2023-08-09T11:56:05.009Z,41.73
2023-08-09T11:58:31.503Z,42.32
2023-08-09T12:01:00.439Z,41.63
2023-08-09T12:03:27.573Z,41.98
2023-08-09T12:05:57.272Z,42.12
2023-08-09T12:08:23.807Z,41.30
2023-08-09T12:10:50.344Z,39.59
2023-08-09T12:15:43.387Z,36.70
2023-08-09T12:18:09.886Z,36.57
2023-08-09T12:20:41.068Z,36.97
2023-08-09T12:23:07.532Z,37.22
2023-08-09T12:25:34.045Z,37.38
2023-08-09T12:28:00.465Z,37.92
2023-08-09T12:30:27.020Z,37.80
2023-08-09T12:32:53.492Z,39.91
2023-08-09T12:35:20.007Z,40.97
2023-08-09T12:37:48.341Z,41.92
2023-08-09T12:40:14.863Z,42.45
2023-08-09T12:42:41.369Z,40.89
2023-08-09T12:45:11.461Z,38.46
2023-08-09T12:47:38.009Z,39.77
2023-08-09T12:50:04.503Z,39.01
2023-08-09T12:52:31.091Z,35.89
2023-08-09T12:54:57.787Z,35.72
2023-08-09T12:57:27.503Z,40.11
2023-08-09T12:59:54.563Z,41.13
2023-08-09T13:02:21.064Z,37.45
2023-08-09T13:04:57.131Z,37.88
2023-08-09T13:07:23.603Z,39.18
2023-08-09T13:09:50.228Z,40.98
2023-08-09T13:12:17.794Z,41.86
2023-08-09T13:14:44.346Z,37.22
2023-08-09T13:17:10.920Z,40.58
2023-08-09T13:22:38.088Z,35.31
2023-08-09T13:25:07.964Z,34.88
2023-08-09T13:27:34.586Z,34.37
2023-08-09T13:30:01.149Z,35.01
2023-08-09T13:32:27.807Z,34.05
2023-08-09T13:34:54.487Z,34.40
2023-08-09T13:37:21.790Z,32.46
2023-08-09T13:39:48.328Z,34.05
2023-08-09T13:42:17.024Z,32.90
2023-08-09T13:44:43.538Z,32.61
2023-08-09T13:47:10.043Z,32.84
2023-08-09T13:49:36.522Z,34.43
2023-08-09T13:52:03.252Z,34.46
2023-08-09T13:54:31.768Z,34.73
2023-08-09T13:56:58.233Z,33.50
2023-08-09T13:59:24.747Z,34.20
2023-08-09T14:04:38.057Z,33.39
2023-08-09T14:07:16.149Z,31.80
2023-08-09T14:09:42.701Z,32.44
2023-08-09T14:14:49.673Z,31.52
2023-08-09T14:17:16.237Z,31.45
2023-08-09T14:19:42.730Z,30.18
2023-08-09T14:22:09.254Z,30.93
2023-08-09T14:24:35.768Z,31.41
2023-08-09T14:27:02.635Z,31.46
2023-08-09T14:29:29.291Z,33.22
2023-08-09T14:31:55.878Z,31.17
2023-08-09T14:34:22.430Z,31.24
2023-08-09T14:36:49.034Z,30.85
2023-08-09T14:39:15.613Z,33.46
2023-08-09T14:41:42.200Z,32.40
2023-08-09T14:44:08.947Z,31.51
2023-08-09T14:46:36.027Z,32.97
2023-08-09T14:49:11.282Z,32.48
2023-08-09T14:51:38.399Z,33.25
2023-08-09T14:56:48.780Z,31.38
2023-08-09T14:59:15.329Z,36.17
2023-08-09T15:01:42.633Z,35.09
2023-08-09T15:04:14.182Z,33.40
2023-08-09T15:06:40.754Z,34.26
2023-08-09T15:09:07.327Z,34.51
2023-08-09T15:11:33.931Z,31.43
2023-08-09T15:14:00.492Z,33.47
2023-08-09T15:16:27.042Z,33.66
2023-08-09T15:18:53.606Z,35.95
2023-08-09T15:21:22.839Z,34.98
2023-08-09T15:23:49.472Z,38.78
2023-08-09T15:28:59.590Z,34.46
2023-08-09T15:31:26.178Z,34.52
2023-08-09T15:33:52.711Z,31.63
2023-08-09T15:36:19.253Z,31.59
2023-08-09T15:38:46.529Z,30.92
2023-08-09T15:41:12.952Z,31.77
2023-08-09T15:43:39.497Z,31.80
2023-08-09T15:46:06.081Z,36.89
2023-08-09T15:48:32.853Z,36.26
2023-08-09T15:50:59.457Z,36.42
2023-08-09T15:53:25.974Z,34.29
2023-08-09T15:55:52.508Z,33.88
2023-08-09T15:58:22.601Z,33.71
2023-08-09T16:00:55.403Z,30.58
2023-08-09T16:03:22.703Z,28.89
2023-08-09T16:05:49.295Z,26.03
2023-08-09T16:08:15.903Z,25.45
2023-08-09T16:10:42.424Z,24.94
2023-08-09T16:13:08.869Z,24.00
2023-08-09T16:18:15.847Z,22.25
2023-08-09T16:20:42.493Z,21.42
2023-08-09T16:23:09.000Z,22.69
2023-08-09T16:25:35.500Z,23.04
2023-08-09T16:28:02.008Z,22.85
2023-08-09T16:30:28.458Z,24.81
2023-08-09T16:32:55.920Z,24.97
2023-08-09T16:35:22.376Z,25.07
2023-08-09T16:37:48.868Z,26.38
2023-08-09T16:40:15.337Z,25.56
2023-08-09T16:42:42.027Z,25.71
2023-08-09T16:45:11.896Z,25.53
2023-08-09T16:47:41.226Z,24.54
2023-08-09T16:50:07.697Z,25.81
2023-08-09T16:52:46.365Z,26.10
2023-08-09T16:55:12.954Z,26.34
2023-08-09T16:57:39.502Z,26.07
2023-08-09T17:00:06.031Z,27.04
2023-08-09T17:02:35.142Z,26.36
2023-08-09T17:05:03.099Z,28.04
2023-08-09T17:07:29.612Z,26.99
2023-08-09T17:09:56.583Z,26.64
2023-08-09T17:12:23.103Z,27.84
2023-08-09T17:14:49.652Z,28.22
2023-08-09T17:17:16.090Z,28.54
2023-08-09T17:19:58.296Z,28.63
2023-08-09T17:22:24.886Z,28.26
2023-08-09T17:24:51.327Z,28.57
2023-08-09T17:27:17.765Z,28.72
2023-08-09T17:29:44.413Z,29.45
2023-08-09T17:32:10.841Z,29.08
2023-08-09T17:34:37.307Z,29.17
2023-08-09T17:37:04.042Z,29.13
2023-08-09T17:39:30.608Z,28.51
2023-08-09T17:41:57.107Z,30.94
2023-08-09T17:44:23.572Z,29.74
2023-08-09T17:46:49.993Z,30.16
2023-08-09T17:49:16.416Z,30.80
2023-08-09T17:51:53.469Z,29.96
2023-08-09T17:54:19.982Z,30.56
2023-08-09T17:56:46.455Z,30.17
2023-08-09T17:59:19.128Z,30.00
2023-08-09T18:01:45.657Z,30.25
2023-08-09T18:04:12.245Z,30.05
2023-08-09T18:06:38.863Z,29.14
2023-08-09T18:09:05.535Z,29.28
2023-08-09T18:11:32.030Z,28.20
2023-08-09T18:14:02.982Z,28.84
2023-08-09T18:16:31.469Z,28.72
2023-08-09T18:18:58.116Z,28.99
2023-08-09T18:21:24.661Z,29.32
2023-08-09T18:23:51.173Z,29.55
2023-08-09T18:26:17.687Z,29.66
2023-08-09T18:28:45.217Z,30.32
2023-08-09T18:31:11.688Z,30.48
2023-08-09T18:33:41.771Z,30.36
2023-08-09T18:36:08.648Z,30.86
2023-08-09T18:38:35.204Z,31.47
2023-08-09T18:43:41.960Z,32.33
2023-08-09T18:46:08.527Z,32.57
2023-08-09T18:48:35.672Z,32.71
2023-08-09T18:51:03.082Z,32.76
2023-08-09T18:53:29.670Z,33.23
2023-08-09T18:55:56.293Z,33.52
2023-08-09T18:58:22.846Z,33.91
2023-08-09T19:00:49.455Z,34.03
2023-08-09T19:03:15.996Z,34.03
2023-08-09T19:05:42.648Z,33.50
2023-08-09T19:08:09.181Z,33.45
2023-08-09T19:10:35.799Z,33.23
2023-08-09T19:13:02.483Z,33.50
2023-08-09T19:15:31.081Z,33.55
2023-08-09T19:17:57.599Z,33.78
2023-08-09T19:20:24.315Z,34.08
2023-08-09T19:22:50.816Z,34.32
2023-08-09T19:25:17.356Z,34.37
2023-08-09T19:27:43.798Z,34.48
2023-08-09T19:30:10.290Z,34.68
2023-08-09T19:32:36.811Z,35.03
2023-08-09T19:35:03.371Z,35.46
2023-08-09T19:37:29.921Z,35.64
2023-08-09T19:40:02.505Z,35.69
2023-08-09T19:42:29.051Z,35.81
2023-08-09T19:44:55.527Z,35.73
2023-08-09T19:47:22.182Z,35.64
2023-08-09T19:49:48.756Z,36.06
2023-08-09T19:52:15.300Z,36.09
2023-08-09T19:54:41.965Z,36.10
2023-08-09T19:57:08.767Z,36.10
2023-08-09T19:59:35.319Z,36.28
2023-08-09T20:02:01.911Z,36.49
2023-08-09T20:04:32.764Z,36.69
2023-08-09T20:06:59.358Z,35.87
2023-08-09T20:09:28.237Z,36.23
2023-08-09T20:11:54.834Z,36.23
2023-08-09T20:14:21.417Z,35.88
2023-08-09T20:16:48.154Z,35.85
2023-08-09T20:19:16.328Z,36.18
2023-08-09T20:21:42.855Z,36.30
2023-08-09T20:24:09.507Z,36.36
2023-08-09T20:26:36.115Z,36.34
2023-08-09T20:29:02.673Z,36.64
2023-08-09T20:31:29.305Z,36.40
2023-08-09T20:34:01.965Z,36.72
2023-08-09T20:36:28.709Z,36.88
2023-08-09T20:38:55.327Z,36.57
2023-08-09T20:41:24.587Z,36.72
2023-08-09T20:43:51.195Z,36.99
2023-08-09T20:46:17.797Z,37.43
2023-08-09T20:48:44.394Z,37.54
2023-08-09T20:51:11.051Z,37.84
2023-08-09T20:53:37.785Z,36.96
2023-08-09T20:58:44.669Z,37.52
2023-08-09T21:01:13.972Z,37.46
2023-08-09T21:03:40.525Z,37.74
2023-08-09T21:06:07.188Z,38.01
2023-08-09T21:08:33.903Z,37.74
2023-08-09T21:11:00.562Z,37.68
2023-08-09T21:13:27.232Z,37.97
2023-08-09T21:15:55.330Z,38.33
2023-08-09T21:18:40.175Z,38.26
2023-08-09T21:21:13.276Z,38.49
2023-08-09T21:26:10.627Z,38.48
2023-08-09T21:28:37.272Z,38.44
2023-08-09T21:33:44.162Z,38.37
2023-08-09T21:36:10.714Z,38.61
2023-08-09T21:38:37.488Z,38.40
2023-08-09T21:41:04.024Z,38.50
2023-08-09T21:43:30.651Z,38.14
2023-08-09T21:45:57.252Z,37.98
2023-08-09T21:48:23.999Z,38.48
2023-08-09T21:50:50.462Z,39.00
2023-08-09T21:53:16.957Z,39.30
2023-08-09T21:55:43.488Z,38.87
2023-08-09T21:58:10.138Z,38.71
2023-08-09T22:00:36.673Z,38.38
2023-08-09T22:03:03.334Z,38.42
2023-08-09T22:05:30.011Z,38.13
2023-08-09T22:07:57.259Z,38.35
2023-08-09T22:10:25.012Z,38.63
2023-08-09T22:13:03.237Z,38.45
2023-08-09T22:15:29.765Z,38.31
2023-08-09T22:17:56.423Z,38.39
2023-08-09T22:20:23.246Z,37.81
2023-08-09T22:22:59.202Z,38.23
2023-08-09T22:25:25.832Z,37.68
2023-08-09T22:27:52.376Z,38.34
2023-08-09T22:30:26.095Z,38.24
2023-08-09T22:32:53.006Z,38.25
2023-08-09T22:35:19.633Z,38.08
2023-08-09T22:40:48.990Z,38.75
2023-08-09T22:43:15.562Z,38.77
2023-08-09T22:45:42.243Z,38.96
2023-08-09T22:48:13.036Z,39.02
2023-08-09T22:50:41.762Z,39.71
2023-08-09T22:53:08.246Z,39.60
2023-08-09T22:55:34.888Z,39.40
2023-08-09T22:58:01.454Z,39.40
2023-08-09T23:00:28.003Z,39.29
2023-08-09T23:02:54.608Z,39.48
2023-08-09T23:05:21.266Z,39.42
2023-08-09T23:07:47.858Z,39.13
2023-08-09T23:10:16.946Z,39.41
2023-08-09T23:12:43.560Z,39.68
2023-08-09T23:18:08.473Z,39.83
2023-08-09T23:20:35.308Z,39.44
2023-08-09T23:23:01.965Z,39.57
2023-08-09T23:25:28.521Z,39.24
2023-08-09T23:27:58.034Z,39.11
2023-08-09T23:30:24.567Z,39.45
2023-08-09T23:32:51.123Z,39.69
2023-08-09T23:37:59.014Z,40.04
2023-08-09T23:40:25.603Z,40.29
2023-08-09T23:42:52.140Z,40.06
2023-08-09T23:45:18.819Z,40.85
2023-08-09T23:47:45.410Z,40.63
2023-08-09T23:50:11.994Z,40.80
2023-08-09T23:52:38.542Z,40.61
2023-08-09T23:55:06.582Z,40.85
2023-08-09T23:57:33.111Z,41.26
2023-08-09T23:59:59.651Z,40.87
